Time;durP1;ratioP1;P1;durP2;ratioP2;P2;SDS_P1;SDS_P2;PMS_P1;PMS_P2;Temp;Humidity;BMP_temperature;BMP_pressure;BME280_temperature;BME280_humidity;BME280_pressure;Samples;Min_cycle;Max_cycle;Signal;HPM_P1;HPM_P2
2023/05/29 00:00:17;;;;;;;3.78;1.50;;;;;;;19.58;40.89;99503.56;4444758;32;34492;-66
2023/05/29 00:04:40;;;;;;;3.72;1.70;;;;;;;19.31;41.96;99505.75;4448625;32;34885;-66
2023/05/29 00:09:01;;;;;;;3.15;1.90;;;;;;;19.32;41.79;99501.16;4435920;32;34425;-66
2023/05/29 00:13:22;;;;;;;3.80;1.85;;;;;;;19.34;41.76;99504.56;4443086;32;35165;-67
2023/05/29 00:17:46;;;;;;;3.92;1.85;;;;;;;19.33;42.32;99510.16;4450035;32;35866;-66
2023/05/29 00:22:08;;;;;;;8.85;2.33;;;;;;;19.35;42.05;99499.97;4445703;32;35838;-66
2023/05/29 00:26:31;;;;;;;4.05;1.33;;;;;;;19.41;41.76;99504.69;4448793;32;34411;-66
2023/05/29 00:30:50;;;;;;;3.92;2.05;;;;;;;19.42;41.62;99503.66;4447524;32;35354;-66
2023/05/29 00:35:10;;;;;;;4.43;2.12;;;;;;;19.43;41.06;99506.22;4427986;32;35459;-66
2023/05/29 00:39:30;;;;;;;3.62;2.08;;;;;;;19.53;41.03;99500.56;4442685;32;34593;-66
2023/05/29 00:43:54;;;;;;;4.12;1.95;;;;;;;19.48;41.31;99502.94;4442473;32;33860;-65
2023/05/29 00:48:15;;;;;;;5.10;2.78;;;;;;;19.34;41.60;99506.44;4435613;32;34614;-66
2023/05/29 00:52:37;;;;;;;3.17;1.65;;;;;;;18.81;43.36;99522.34;4445248;32;35786;-67
2023/05/29 00:57:01;;;;;;;5.05;1.83;;;;;;;18.76;43.04;99509.34;4447191;32;35727;-69
2023/05/29 01:01:21;;;;;;;3.60;1.85;;;;;;;19.08;42.79;99508.38;4444392;32;34075;-68
2023/05/29 01:05:43;;;;;;;3.08;1.73;;;;;;;18.99;43.48;99509.44;4447109;32;35924;-68
2023/05/29 01:10:03;;;;;;;3.12;1.85;;;;;;;19.08;43.30;99502.97;4443544;32;34883;-67
2023/05/29 01:14:24;;;;;;;4.75;1.92;;;;;;;19.26;42.13;99500.03;4436085;32;35004;-68
2023/05/29 01:18:45;;;;;;;5.22;2.45;;;;;;;19.26;41.95;99499.16;4445095;32;34262;-67
2023/05/29 01:23:04;;;;;;;5.95;2.53;;;;;;;19.31;41.67;99497.59;4443743;32;34644;-67
2023/05/29 01:27:26;;;;;;;4.85;1.77;;;;;;;19.30;41.80;99500.50;4444605;32;35953;-67
2023/05/29 01:31:51;;;;;;;8.70;2.80;;;;;;;19.18;42.16;99502.75;4446264;32;35731;-67
2023/05/29 01:36:13;;;;;;;4.37;2.50;;;;;;;19.27;42.24;99501.69;4440181;32;33996;-68
2023/05/29 01:40:34;;;;;;;5.37;2.50;;;;;;;19.30;42.14;99492.38;4441289;32;34365;-67
2023/05/29 01:44:53;;;;;;;3.22;2.00;;;;;;;19.34;41.71;99493.69;4438272;32;34854;-67
2023/05/29 01:49:12;;;;;;;4.15;2.05;;;;;;;19.27;42.07;99488.13;4434926;32;36090;-66
2023/05/29 01:53:33;;;;;;;5.10;1.90;;;;;;;19.08;42.75;99483.97;4445395;32;34344;-67
2023/05/29 01:57:53;;;;;;;2.22;1.37;;;;;;;19.12;42.73;99479.03;4444129;32;35515;-65
2023/05/29 02:02:15;;;;;;;5.55;2.58;;;;;;;18.93;43.16;99476.75;4441560;32;34789;-66
2023/05/29 02:06:36;;;;;;;4.70;1.67;;;;;;;18.70;43.63;99471.19;4441929;32;33533;-66
2023/05/29 02:10:55;;;;;;;4.07;2.25;;;;;;;18.69;43.56;99467.66;4441108;32;35082;-65
2023/05/29 02:15:22;;;;;;;4.12;2.00;;;;;;;18.41;44.38;99463.62;4445779;32;34249;-67
2023/05/29 02:19:42;;;;;;;3.40;1.83;;;;;;;18.57;44.07;99471.72;4447825;32;34816;-66
2023/05/29 02:24:07;;;;;;;7.93;2.00;;;;;;;18.75;43.84;99468.84;4446743;32;35393;-65
2023/05/29 02:28:26;;;;;;;4.57;2.20;;;;;;;18.71;43.87;99467.47;4440701;32;34464;-64
2023/05/29 02:32:28;;;;;;;;;;;;;;;18.54;44.40;99463.94;4442780;32;34712;-64
2023/05/29 02:36:49;;;;;;;5.55;2.25;;;;;;;18.63;44.04;99462.91;4434808;32;34738;-64
2023/05/29 02:41:09;;;;;;;4.03;1.92;;;;;;;18.74;43.94;99459.84;4437018;32;34718;-64
2023/05/29 02:45:32;;;;;;;3.70;1.95;;;;;;;18.73;44.20;99460.03;4446324;32;34138;-64
2023/05/29 02:49:51;;;;;;;6.68;2.58;;;;;;;18.82;43.94;99459.84;4446234;32;34748;-64
2023/05/29 02:54:12;;;;;;;3.55;1.98;;;;;;;18.86;43.68;99452.19;4443149;32;35193;-64
2023/05/29 02:58:32;;;;;;;4.50;2.47;;;;;;;18.71;44.17;99454.75;4436276;32;34593;-65
2023/05/29 03:02:52;;;;;;;3.70;1.92;;;;;;;18.77;44.11;99456.78;4444021;32;35055;-65
2023/05/29 03:07:13;;;;;;;4.57;2.03;;;;;;;18.74;44.29;99462.56;4441512;32;34398;-66
2023/05/29 03:11:32;;;;;;;6.40;2.92;;;;;;;18.57;45.11;99452.75;4438593;32;34846;-74
2023/05/29 03:15:56;;;;;;;6.82;2.75;;;;;;;18.68;44.74;99463.22;4445390;32;34446;-63
